Chaska, MN (55318)

5:28 PM CDT on May 24, 2017 (GMT -0500)
Hammers Haven | | Change Station
Active Advisory: Flood Warning

Elev 935 ft 44.81 °N, 93.61 °W | Updated 3 minutes ago

Overcast
Overcast
59.3 °F
Feels Like 59.3 °F
N
5.0
Wind Variable Wind from North
Gusts 6.0 mph

Today
High -- | Low -- °F
--% Chance of Precip.
Yesterday
High -- | Low -- °F
Precip. -- in
Pressure 29.70 in
Visibility 10.0 miles
Clouds Few 4200 ft
Overcast 5500 ft
Dew Point 45 °F
Humidity 60%
Rainfall 0.00 in
Snow Depth Not available.
5:36 AM 8:46 PM
Waning Crescent, 1% visible
METAR KFCM 242153Z 03008KT 10SM FEW042 OVC055 17/06 A2969 RMK AO2 SLP057 T01670061
Pressure 29.70 in
Visibility 10.0 miles
Clouds Few 4200 ft
Overcast 5500 ft
Dew Point 45 °F
Humidity 60%
Rainfall 0.00 in
Snow Depth Not available.
5:36 AM 8:46 PM
Waning Crescent, 1% visible
METAR KFCM 242153Z 03008KT 10SM FEW042 OVC055 17/06 A2969 RMK AO2 SLP057 T01670061

Get Your Daily Forecast Email!

Thanks for signing up!

Be on the lookout for a verification email in your inbox.

You'll start receiving severe weather alerts in your inbox..

×

10-Day Weather Forecast

Almanac

Astronomy

May. 24, 2017 Rise Set
Actual Time
Civil Twilight
Nautical Twilight
Astronomical Twilight
Moon
Length of Visible Light
Length of Day
Tomorrow will be .
, % of the Moon is Illuminated

Today's Extremes

State Highs State Lows

Community

WunderPhotos

Category 6

Welcome to Category 6. This is the collective home for Weather Underground's featured writeups by Dr. Jeff Masters (right), Bob Henson (left), Chris Burt, and other regular contributors.

Nearby

Air Quality

  Air Quality AQ Index Pollutant
Not available.

Snow Depth

Station Depth Elevation

Earthquake Activity

City Distance Mag. Time & Date
Minimum magnitude displayed is 2.5.

Coastal Water Temperatures

Place Temperature

Stations

Nearby Weather Stations

Station Location Temp. Windchill Dew Point Humidity Wind Precip. Elev Updated Type
                   

Watches & Warnings

Flood Warning
Issued: 10:36 AM CDT May. 24, 2017 – National Weather Service

The National Weather Service in Chanhassen has issued a

* Flood Warning for
the South Fork Crow River below Mayer.
* Until Saturday afternoon.
* At 9:30 am Wednesday the stage was 10.9 feet.
* Minor flooding is forecast.
* Flood stage is 11.0 feet.
* Forecast... rise above flood stage by this afternoon and continue to
rise to near 11.3 feet by tomorrow early afternoon.The river will
fall below flood stage by Saturday morning.
* Impact... at 11.0 feet... Carver County Road 123 is closed north of
Highway 7 to 42nd street.


Lat... Lon 4498 9390 4498 9377 4483 9390 4486 9399

Amk